sensor_id;sensor_type;location;lat;lon;timestamp;temperature;humidity
5461;DHT22;2753;49.196;8.286;2023-11-22T00:00:14;8.20;99.90
5461;DHT22;2753;49.196;8.286;2023-11-22T00:02:40;8.10;99.90
5461;DHT22;2753;49.196;8.286;2023-11-22T00:05:07;8.20;99.90
5461;DHT22;2753;49.196;8.286;2023-11-22T00:07:35;8.10;99.90
5461;DHT22;2753;49.196;8.286;2023-11-22T00:10:02;8.10;99.90
5461;DHT22;2753;49.196;8.286;2023-11-22T00:12:29;8.10;99.90
5461;DHT22;2753;49.196;8.286;2023-11-22T00:15:02;8.00;99.90
5461;DHT22;2753;49.196;8.286;2023-11-22T00:17:32;8.00;99.90
5461;DHT22;2753;49.196;8.286;2023-11-22T00:19:59;8.00;99.90
5461;DHT22;2753;49.196;8.286;2023-11-22T00:22:27;7.90;99.90
5461;DHT22;2753;49.196;8.286;2023-11-22T00:24:53;8.00;99.90
5461;DHT22;2753;49.196;8.286;2023-11-22T00:27:19;8.00;99.90
5461;DHT22;2753;49.196;8.286;2023-11-22T00:29:45;8.00;99.90
5461;DHT22;2753;49.196;8.286;2023-11-22T00:32:12;8.00;99.90
5461;DHT22;2753;49.196;8.286;2023-11-22T00:34:37;7.90;99.90
5461;DHT22;2753;49.196;8.286;2023-11-22T00:37:03;7.80;99.90
5461;DHT22;2753;49.196;8.286;2023-11-22T00:39:29;7.80;99.90
5461;DHT22;2753;49.196;8.286;2023-11-22T00:41:55;7.80;99.90
5461;DHT22;2753;49.196;8.286;2023-11-22T00:44:21;7.70;99.90
5461;DHT22;2753;49.196;8.286;2023-11-22T00:46:47;7.60;99.90
5461;DHT22;2753;49.196;8.286;2023-11-22T00:49:12;6.70;99.90
5461;DHT22;2753;49.196;8.286;2023-11-22T00:51:38;7.60;99.90
5461;DHT22;2753;49.196;8.286;2023-11-22T00:54:04;7.60;99.90
5461;DHT22;2753;49.196;8.286;2023-11-22T00:56:30;7.60;99.90
5461;DHT22;2753;49.196;8.286;2023-11-22T00:58:56;7.60;99.90
5461;DHT22;2753;49.196;8.286;2023-11-22T01:01:25;7.60;99.90
5461;DHT22;2753;49.196;8.286;2023-11-22T01:03:52;7.50;99.90
5461;DHT22;2753;49.196;8.286;2023-11-22T01:06:18;7.40;99.90
5461;DHT22;2753;49.196;8.286;2023-11-22T01:08:43;7.40;99.90
5461;DHT22;2753;49.196;8.286;2023-11-22T01:11:09;7.40;99.90
5461;DHT22;2753;49.196;8.286;2023-11-22T01:13:35;7.40;99.90
5461;DHT22;2753;49.196;8.286;2023-11-22T01:16:10;7.40;99.90
5461;DHT22;2753;49.196;8.286;2023-11-22T01:18:36;7.40;99.90
5461;DHT22;2753;49.196;8.286;2023-11-22T01:21:03;7.40;99.90
5461;DHT22;2753;49.196;8.286;2023-11-22T01:23:32;7.30;99.90
5461;DHT22;2753;49.196;8.286;2023-11-22T01:25:59;7.30;99.90
5461;DHT22;2753;49.196;8.286;2023-11-22T01:28:26;7.30;99.90
5461;DHT22;2753;49.196;8.286;2023-11-22T01:30:53;7.20;99.90
5461;DHT22;2753;49.196;8.286;2023-11-22T01:33:20;7.20;99.90
5461;DHT22;2753;49.196;8.286;2023-11-22T01:35:46;7.20;99.90
5461;DHT22;2753;49.196;8.286;2023-11-22T01:38:11;7.20;99.90
5461;DHT22;2753;49.196;8.286;2023-11-22T01:40:44;7.10;99.90
5461;DHT22;2753;49.196;8.286;2023-11-22T01:43:16;7.10;99.90
5461;DHT22;2753;49.196;8.286;2023-11-22T01:45:42;7.10;99.90
5461;DHT22;2753;49.196;8.286;2023-11-22T01:48:08;7.10;99.90
5461;DHT22;2753;49.196;8.286;2023-11-22T01:50:37;7.10;99.90
5461;DHT22;2753;49.196;8.286;2023-11-22T01:53:03;7.10;99.90
5461;DHT22;2753;49.196;8.286;2023-11-22T01:55:29;7.10;99.90
5461;DHT22;2753;49.196;8.286;2023-11-22T01:57:59;7.10;99.90
5461;DHT22;2753;49.196;8.286;2023-11-22T02:00:26;7.00;99.90
5461;DHT22;2753;49.196;8.286;2023-11-22T02:02:54;7.10;99.90
5461;DHT22;2753;49.196;8.286;2023-11-22T02:05:20;7.00;99.90
5461;DHT22;2753;49.196;8.286;2023-11-22T02:07:45;7.00;99.90
5461;DHT22;2753;49.196;8.286;2023-11-22T02:10:12;7.00;99.90
5461;DHT22;2753;49.196;8.286;2023-11-22T02:12:39;7.00;99.90
5461;DHT22;2753;49.196;8.286;2023-11-22T02:15:06;6.90;99.90
5461;DHT22;2753;49.196;8.286;2023-11-22T02:17:32;6.90;99.90
5461;DHT22;2753;49.196;8.286;2023-11-22T02:19:59;6.90;99.90
5461;DHT22;2753;49.196;8.286;2023-11-22T02:22:25;6.80;99.90
5461;DHT22;2753;49.196;8.286;2023-11-22T02:24:51;6.90;99.90
5461;DHT22;2753;49.196;8.286;2023-11-22T02:27:16;6.90;99.90
5461;DHT22;2753;49.196;8.286;2023-11-22T02:29:44;6.80;99.90
5461;DHT22;2753;49.196;8.286;2023-11-22T02:32:10;6.80;99.90
5461;DHT22;2753;49.196;8.286;2023-11-22T02:34:36;6.70;99.90
5461;DHT22;2753;49.196;8.286;2023-11-22T02:37:05;6.70;99.90
5461;DHT22;2753;49.196;8.286;2023-11-22T02:39:55;6.70;99.90
5461;DHT22;2753;49.196;8.286;2023-11-22T02:42:23;6.60;99.90
5461;DHT22;2753;49.196;8.286;2023-11-22T02:44:50;6.60;99.90
5461;DHT22;2753;49.196;8.286;2023-11-22T02:47:15;6.60;99.90
5461;DHT22;2753;49.196;8.286;2023-11-22T02:49:41;6.60;99.90
5461;DHT22;2753;49.196;8.286;2023-11-22T02:52:07;6.50;99.90
5461;DHT22;2753;49.196;8.286;2023-11-22T02:54:32;6.50;99.90
5461;DHT22;2753;49.196;8.286;2023-11-22T02:56:59;6.40;99.90
5461;DHT22;2753;49.196;8.286;2023-11-22T02:59:25;6.50;99.90
5461;DHT22;2753;49.196;8.286;2023-11-22T03:01:51;6.50;99.90
5461;DHT22;2753;49.196;8.286;2023-11-22T03:04:17;6.40;99.90
5461;DHT22;2753;49.196;8.286;2023-11-22T03:06:43;6.40;99.90
5461;DHT22;2753;49.196;8.286;2023-11-22T03:09:08;6.30;99.90
5461;DHT22;2753;49.196;8.286;2023-11-22T03:11:34;6.30;99.90
5461;DHT22;2753;49.196;8.286;2023-11-22T03:14:00;6.30;99.90
5461;DHT22;2753;49.196;8.286;2023-11-22T03:16:29;6.30;99.90
5461;DHT22;2753;49.196;8.286;2023-11-22T03:18:55;6.20;99.90
5461;DHT22;2753;49.196;8.286;2023-11-22T03:21:21;6.20;99.90
5461;DHT22;2753;49.196;8.286;2023-11-22T03:26:22;6.10;99.90
5461;DHT22;2753;49.196;8.286;2023-11-22T03:41:43;5.90;99.90
5461;DHT22;2753;49.196;8.286;2023-11-22T03:44:09;5.90;99.90
5461;DHT22;2753;49.196;8.286;2023-11-22T03:49:10;5.90;99.90
5461;DHT22;2753;49.196;8.286;2023-11-22T03:54:11;5.90;99.90
5461;DHT22;2753;49.196;8.286;2023-11-22T03:59:06;5.80;99.90
5461;DHT22;2753;49.196;8.286;2023-11-22T04:01:31;5.80;99.90
5461;DHT22;2753;49.196;8.286;2023-11-22T04:03:57;5.70;99.90
5461;DHT22;2753;49.196;8.286;2023-11-22T04:08:51;5.80;99.90
5461;DHT22;2753;49.196;8.286;2023-11-22T04:11:18;5.70;99.90
5461;DHT22;2753;49.196;8.286;2023-11-22T04:13:44;5.70;99.90
5461;DHT22;2753;49.196;8.286;2023-11-22T04:16:10;5.70;99.90
5461;DHT22;2753;49.196;8.286;2023-11-22T04:18:41;5.60;99.90
5461;DHT22;2753;49.196;8.286;2023-11-22T04:21:07;5.60;99.90
5461;DHT22;2753;49.196;8.286;2023-11-22T04:28:39;5.50;99.90
5461;DHT22;2753;49.196;8.286;2023-11-22T04:31:04;5.50;99.90
5461;DHT22;2753;49.196;8.286;2023-11-22T04:33:30;5.50;99.90
5461;DHT22;2753;49.196;8.286;2023-11-22T04:36:03;5.50;99.90
5461;DHT22;2753;49.196;8.286;2023-11-22T04:38:29;5.40;99.90
5461;DHT22;2753;49.196;8.286;2023-11-22T04:40:55;5.40;99.90
5461;DHT22;2753;49.196;8.286;2023-11-22T04:43:21;5.40;99.90
5461;DHT22;2753;49.196;8.286;2023-11-22T04:45:46;5.40;99.90
5461;DHT22;2753;49.196;8.286;2023-11-22T04:48:12;5.30;99.90
5461;DHT22;2753;49.196;8.286;2023-11-22T04:50:41;5.30;99.90
5461;DHT22;2753;49.196;8.286;2023-11-22T04:53:10;5.30;99.90
5461;DHT22;2753;49.196;8.286;2023-11-22T04:55:36;5.20;99.90
5461;DHT22;2753;49.196;8.286;2023-11-22T04:58:01;5.20;99.90
5461;DHT22;2753;49.196;8.286;2023-11-22T05:00:27;5.20;99.90
5461;DHT22;2753;49.196;8.286;2023-11-22T05:02:54;5.10;99.90
5461;DHT22;2753;49.196;8.286;2023-11-22T05:05:20;5.10;99.90
5461;DHT22;2753;49.196;8.286;2023-11-22T05:07:46;5.10;99.90
5461;DHT22;2753;49.196;8.286;2023-11-22T05:10:12;5.10;99.90
5461;DHT22;2753;49.196;8.286;2023-11-22T05:12:38;5.10;99.90
5461;DHT22;2753;49.196;8.286;2023-11-22T05:15:04;5.10;99.90
5461;DHT22;2753;49.196;8.286;2023-11-22T05:17:30;5.00;99.90
5461;DHT22;2753;49.196;8.286;2023-11-22T05:19:56;4.90;99.90
5461;DHT22;2753;49.196;8.286;2023-11-22T05:22:22;4.90;99.90
5461;DHT22;2753;49.196;8.286;2023-11-22T05:24:49;4.90;99.90
5461;DHT22;2753;49.196;8.286;2023-11-22T05:27:15;4.90;99.90
5461;DHT22;2753;49.196;8.286;2023-11-22T05:29:40;4.90;99.90
5461;DHT22;2753;49.196;8.286;2023-11-22T05:32:06;4.80;99.90
5461;DHT22;2753;49.196;8.286;2023-11-22T05:34:32;4.80;99.90
5461;DHT22;2753;49.196;8.286;2023-11-22T05:36:58;4.70;99.90
5461;DHT22;2753;49.196;8.286;2023-11-22T05:39:24;4.70;99.90
5461;DHT22;2753;49.196;8.286;2023-11-22T05:41:51;4.70;99.90
5461;DHT22;2753;49.196;8.286;2023-11-22T05:44:16;4.70;99.90
5461;DHT22;2753;49.196;8.286;2023-11-22T05:46:42;4.70;99.90
5461;DHT22;2753;49.196;8.286;2023-11-22T05:49:08;4.70;99.90
5461;DHT22;2753;49.196;8.286;2023-11-22T05:51:36;4.70;99.90
5461;DHT22;2753;49.196;8.286;2023-11-22T05:54:03;4.70;99.90
5461;DHT22;2753;49.196;8.286;2023-11-22T05:56:29;4.70;99.90
5461;DHT22;2753;49.196;8.286;2023-11-22T05:58:54;4.60;99.90
5461;DHT22;2753;49.196;8.286;2023-11-22T06:01:20;4.70;99.90
5461;DHT22;2753;49.196;8.286;2023-11-22T06:03:46;4.60;99.90
5461;DHT22;2753;49.196;8.286;2023-11-22T06:06:13;4.60;99.90
5461;DHT22;2753;49.196;8.286;2023-11-22T06:08:40;4.50;99.90
5461;DHT22;2753;49.196;8.286;2023-11-22T06:11:05;4.50;99.90
5461;DHT22;2753;49.196;8.286;2023-11-22T06:13:32;4.60;99.90
5461;DHT22;2753;49.196;8.286;2023-11-22T06:15:58;4.50;99.90
5461;DHT22;2753;49.196;8.286;2023-11-22T06:18:24;4.50;99.90
5461;DHT22;2753;49.196;8.286;2023-11-22T06:20:56;4.50;99.90
5461;DHT22;2753;49.196;8.286;2023-11-22T06:23:22;4.40;99.90
5461;DHT22;2753;49.196;8.286;2023-11-22T06:25:48;4.40;99.90
5461;DHT22;2753;49.196;8.286;2023-11-22T06:28:14;4.40;99.90
5461;DHT22;2753;49.196;8.286;2023-11-22T06:30:40;4.40;99.90
5461;DHT22;2753;49.196;8.286;2023-11-22T06:33:06;4.40;99.90
5461;DHT22;2753;49.196;8.286;2023-11-22T06:35:32;4.40;99.90
5461;DHT22;2753;49.196;8.286;2023-11-22T06:37:58;4.40;99.90
5461;DHT22;2753;49.196;8.286;2023-11-22T06:40:24;4.40;99.90
5461;DHT22;2753;49.196;8.286;2023-11-22T06:42:50;4.40;99.90
5461;DHT22;2753;49.196;8.286;2023-11-22T06:45:15;4.30;99.90
5461;DHT22;2753;49.196;8.286;2023-11-22T06:47:42;4.30;99.90
5461;DHT22;2753;49.196;8.286;2023-11-22T06:50:09;4.30;99.90
5461;DHT22;2753;49.196;8.286;2023-11-22T06:52:41;4.30;99.90
5461;DHT22;2753;49.196;8.286;2023-11-22T06:55:10;4.30;99.90
5461;DHT22;2753;49.196;8.286;2023-11-22T06:57:39;4.30;99.90
5461;DHT22;2753;49.196;8.286;2023-11-22T07:00:07;4.20;99.90
5461;DHT22;2753;49.196;8.286;2023-11-22T07:02:35;4.30;99.90
5461;DHT22;2753;49.196;8.286;2023-11-22T07:05:05;4.30;99.90
5461;DHT22;2753;49.196;8.286;2023-11-22T07:07:38;4.20;99.90
5461;DHT22;2753;49.196;8.286;2023-11-22T07:10:05;4.20;99.90
5461;DHT22;2753;49.196;8.286;2023-11-22T07:12:31;4.20;99.90
5461;DHT22;2753;49.196;8.286;2023-11-22T07:14:57;4.20;99.90
5461;DHT22;2753;49.196;8.286;2023-11-22T07:17:25;4.20;99.90
5461;DHT22;2753;49.196;8.286;2023-11-22T07:19:54;4.20;99.90
5461;DHT22;2753;49.196;8.286;2023-11-22T07:22:20;4.20;99.90
5461;DHT22;2753;49.196;8.286;2023-11-22T07:24:48;4.20;99.90
5461;DHT22;2753;49.196;8.286;2023-11-22T07:27:20;4.20;99.90
5461;DHT22;2753;49.196;8.286;2023-11-22T07:29:46;4.20;99.90
5461;DHT22;2753;49.196;8.286;2023-11-22T07:32:15;4.30;99.90
5461;DHT22;2753;49.196;8.286;2023-11-22T07:34:41;4.30;99.90
5461;DHT22;2753;49.196;8.286;2023-11-22T07:37:07;4.30;99.90
5461;DHT22;2753;49.196;8.286;2023-11-22T07:39:34;4.30;99.90
5461;DHT22;2753;49.196;8.286;2023-11-22T07:42:05;4.40;99.90
5461;DHT22;2753;49.196;8.286;2023-11-22T07:44:34;4.40;99.90
5461;DHT22;2753;49.196;8.286;2023-11-22T07:47:01;4.40;99.90
5461;DHT22;2753;49.196;8.286;2023-11-22T07:49:28;4.40;99.90
5461;DHT22;2753;49.196;8.286;2023-11-22T07:51:54;4.40;99.90
5461;DHT22;2753;49.196;8.286;2023-11-22T07:54:22;4.50;99.90
5461;DHT22;2753;49.196;8.286;2023-11-22T07:56:51;4.50;99.90
5461;DHT22;2753;49.196;8.286;2023-11-22T07:59:23;4.50;99.90
5461;DHT22;2753;49.196;8.286;2023-11-22T08:01:48;4.60;99.90
5461;DHT22;2753;49.196;8.286;2023-11-22T08:04:15;4.60;99.90
5461;DHT22;2753;49.196;8.286;2023-11-22T08:06:44;4.60;99.90
5461;DHT22;2753;49.196;8.286;2023-11-22T08:09:09;4.70;99.90
5461;DHT22;2753;49.196;8.286;2023-11-22T08:11:36;4.70;99.90
5461;DHT22;2753;49.196;8.286;2023-11-22T08:14:02;4.70;99.90
5461;DHT22;2753;49.196;8.286;2023-11-22T08:16:28;4.70;99.90
5461;DHT22;2753;49.196;8.286;2023-11-22T08:18:54;4.80;99.90
5461;DHT22;2753;49.196;8.286;2023-11-22T08:21:19;4.80;99.90
5461;DHT22;2753;49.196;8.286;2023-11-22T08:23:46;4.80;99.90
5461;DHT22;2753;49.196;8.286;2023-11-22T08:26:12;4.90;99.90
5461;DHT22;2753;49.196;8.286;2023-11-22T08:28:40;4.90;99.90
5461;DHT22;2753;49.196;8.286;2023-11-22T08:31:06;4.90;99.90
5461;DHT22;2753;49.196;8.286;2023-11-22T08:33:35;4.90;99.90
5461;DHT22;2753;49.196;8.286;2023-11-22T08:36:01;5.00;99.90
5461;DHT22;2753;49.196;8.286;2023-11-22T08:38:30;5.00;99.90
5461;DHT22;2753;49.196;8.286;2023-11-22T08:41:01;5.10;99.90
5461;DHT22;2753;49.196;8.286;2023-11-22T08:43:27;5.10;99.70
5461;DHT22;2753;49.196;8.286;2023-11-22T08:45:52;5.10;99.80
5461;DHT22;2753;49.196;8.286;2023-11-22T08:48:18;5.10;99.30
5461;DHT22;2753;49.196;8.286;2023-11-22T08:50:44;5.20;99.10
5461;DHT22;2753;49.196;8.286;2023-11-22T08:53:11;5.20;98.00
5461;DHT22;2753;49.196;8.286;2023-11-22T08:55:37;5.20;97.70
5461;DHT22;2753;49.196;8.286;2023-11-22T08:58:03;5.30;97.50
5461;DHT22;2753;49.196;8.286;2023-11-22T09:00:30;5.20;97.00
5461;DHT22;2753;49.196;8.286;2023-11-22T09:02:58;5.20;97.40
5461;DHT22;2753;49.196;8.286;2023-11-22T09:05:25;5.20;97.80
5461;DHT22;2753;49.196;8.286;2023-11-22T09:07:52;5.30;97.50
5461;DHT22;2753;49.196;8.286;2023-11-22T09:10:21;5.20;97.20
5461;DHT22;2753;49.196;8.286;2023-11-22T09:12:47;5.20;97.00
5461;DHT22;2753;49.196;8.286;2023-11-22T09:15:14;5.10;97.10
5461;DHT22;2753;49.196;8.286;2023-11-22T09:17:43;5.10;97.50
5461;DHT22;2753;49.196;8.286;2023-11-22T09:20:10;5.10;97.40
5461;DHT22;2753;49.196;8.286;2023-11-22T09:22:48;5.00;97.10
5461;DHT22;2753;49.196;8.286;2023-11-22T09:25:15;5.10;97.70
5461;DHT22;2753;49.196;8.286;2023-11-22T09:27:45;5.10;97.30
5461;DHT22;2753;49.196;8.286;2023-11-22T09:30:13;5.10;97.50
5461;DHT22;2753;49.196;8.286;2023-11-22T09:32:48;5.10;97.90
5461;DHT22;2753;49.196;8.286;2023-11-22T09:35:14;5.10;97.70
5461;DHT22;2753;49.196;8.286;2023-11-22T09:37:41;5.10;97.40
5461;DHT22;2753;49.196;8.286;2023-11-22T09:40:10;5.10;97.70
5461;DHT22;2753;49.196;8.286;2023-11-22T09:42:38;5.10;97.70
5461;DHT22;2753;49.196;8.286;2023-11-22T09:45:05;5.10;97.50
5461;DHT22;2753;49.196;8.286;2023-11-22T09:47:32;5.10;97.60
5461;DHT22;2753;49.196;8.286;2023-11-22T09:50:02;5.10;97.70
5461;DHT22;2753;49.196;8.286;2023-11-22T09:52:33;4.90;97.10
5461;DHT22;2753;49.196;8.286;2023-11-22T09:55:02;5.00;97.60
5461;DHT22;2753;49.196;8.286;2023-11-22T09:57:30;4.90;97.60
5461;DHT22;2753;49.196;8.286;2023-11-22T09:59:57;5.00;97.80
5461;DHT22;2753;49.196;8.286;2023-11-22T10:02:24;5.00;97.60
5461;DHT22;2753;49.196;8.286;2023-11-22T10:04:54;5.00;97.70
5461;DHT22;2753;49.196;8.286;2023-11-22T10:07:21;5.10;98.20
5461;DHT22;2753;49.196;8.286;2023-11-22T10:09:48;5.00;98.00
5461;DHT22;2753;49.196;8.286;2023-11-22T10:12:19;5.10;97.20
5461;DHT22;2753;49.196;8.286;2023-11-22T10:14:49;5.10;97.40
5461;DHT22;2753;49.196;8.286;2023-11-22T10:17:14;5.10;97.40
5461;DHT22;2753;49.196;8.286;2023-11-22T10:19:44;5.10;97.80
5461;DHT22;2753;49.196;8.286;2023-11-22T10:22:10;5.10;97.80
5461;DHT22;2753;49.196;8.286;2023-11-22T10:24:43;5.20;97.90
5461;DHT22;2753;49.196;8.286;2023-11-22T10:27:12;5.10;97.90
5461;DHT22;2753;49.196;8.286;2023-11-22T10:29:41;5.00;97.30
5461;DHT22;2753;49.196;8.286;2023-11-22T10:32:08;5.00;97.60
5461;DHT22;2753;49.196;8.286;2023-11-22T10:34:34;5.10;98.20
5461;DHT22;2753;49.196;8.286;2023-11-22T10:37:02;5.20;98.20
5461;DHT22;2753;49.196;8.286;2023-11-22T10:39:29;5.20;98.20
5461;DHT22;2753;49.196;8.286;2023-11-22T10:41:55;5.20;98.00
5461;DHT22;2753;49.196;8.286;2023-11-22T10:44:21;5.20;98.00
5461;DHT22;2753;49.196;8.286;2023-11-22T10:46:48;5.10;97.90
5461;DHT22;2753;49.196;8.286;2023-11-22T10:49:14;5.10;97.70
5461;DHT22;2753;49.196;8.286;2023-11-22T10:51:40;5.10;97.90
5461;DHT22;2753;49.196;8.286;2023-11-22T10:54:10;5.00;98.00
5461;DHT22;2753;49.196;8.286;2023-11-22T10:56:39;5.00;98.00
5461;DHT22;2753;49.196;8.286;2023-11-22T10:59:11;5.10;98.20
5461;DHT22;2753;49.196;8.286;2023-11-22T11:01:43;5.10;98.00
5461;DHT22;2753;49.196;8.286;2023-11-22T11:04:20;5.10;98.00
5461;DHT22;2753;49.196;8.286;2023-11-22T11:06:54;5.10;97.90
5461;DHT22;2753;49.196;8.286;2023-11-22T11:09:24;5.00;97.40
5461;DHT22;2753;49.196;8.286;2023-11-22T11:11:55;5.00;97.80
5461;DHT22;2753;49.196;8.286;2023-11-22T11:14:23;5.00;97.70
5461;DHT22;2753;49.196;8.286;2023-11-22T11:16:50;5.00;97.70
5461;DHT22;2753;49.196;8.286;2023-11-22T11:19:20;4.90;97.50
5461;DHT22;2753;49.196;8.286;2023-11-22T11:21:49;4.80;97.30
5461;DHT22;2753;49.196;8.286;2023-11-22T11:24:16;4.80;97.30
5461;DHT22;2753;49.196;8.286;2023-11-22T11:26:48;4.70;97.20
5461;DHT22;2753;49.196;8.286;2023-11-22T11:29:34;4.70;97.30
5461;DHT22;2753;49.196;8.286;2023-11-22T11:32:04;4.70;97.50
5461;DHT22;2753;49.196;8.286;2023-11-22T11:34:49;4.80;97.40
5461;DHT22;2753;49.196;8.286;2023-11-22T11:37:20;4.80;97.30
5461;DHT22;2753;49.196;8.286;2023-11-22T11:39:46;4.80;97.10
5461;DHT22;2753;49.196;8.286;2023-11-22T11:42:15;4.80;97.20
5461;DHT22;2753;49.196;8.286;2023-11-22T11:45:04;4.80;96.90
5461;DHT22;2753;49.196;8.286;2023-11-22T11:47:36;4.80;97.20
5461;DHT22;2753;49.196;8.286;2023-11-22T11:50:02;4.70;97.20
5461;DHT22;2753;49.196;8.286;2023-11-22T11:52:28;4.70;97.30
5461;DHT22;2753;49.196;8.286;2023-11-22T11:54:56;4.80;97.50
5461;DHT22;2753;49.196;8.286;2023-11-22T11:57:23;4.80;97.30
5461;DHT22;2753;49.196;8.286;2023-11-22T11:59:49;4.70;96.80
5461;DHT22;2753;49.196;8.286;2023-11-22T12:02:16;4.70;97.10
5461;DHT22;2753;49.196;8.286;2023-11-22T12:04:54;4.70;97.40
5461;DHT22;2753;49.196;8.286;2023-11-22T12:07:20;4.80;97.30
5461;DHT22;2753;49.196;8.286;2023-11-22T12:09:45;4.80;97.40
5461;DHT22;2753;49.196;8.286;2023-11-22T12:12:13;3.90;96.80
5461;DHT22;2753;49.196;8.286;2023-11-22T12:14:39;4.80;97.10
5461;DHT22;2753;49.196;8.286;2023-11-22T12:17:05;4.80;97.00
5461;DHT22;2753;49.196;8.286;2023-11-22T12:22:58;4.80;97.10
5461;DHT22;2753;49.196;8.286;2023-11-22T12:25:27;4.80;97.00
5461;DHT22;2753;49.196;8.286;2023-11-22T12:27:54;4.90;97.50
5461;DHT22;2753;49.196;8.286;2023-11-22T12:30:34;4.90;97.20
5461;DHT22;2753;49.196;8.286;2023-11-22T12:33:10;4.90;97.30
5461;DHT22;2753;49.196;8.286;2023-11-22T12:35:36;5.00;97.30
5461;DHT22;2753;49.196;8.286;2023-11-22T12:38:04;5.00;97.00
5461;DHT22;2753;49.196;8.286;2023-11-22T12:40:31;5.00;97.00
5461;DHT22;2753;49.196;8.286;2023-11-22T12:43:02;5.10;97.20
5461;DHT22;2753;49.196;8.286;2023-11-22T12:45:32;5.10;97.20
5461;DHT22;2753;49.196;8.286;2023-11-22T12:48:23;5.20;97.70
5461;DHT22;2753;49.196;8.286;2023-11-22T12:50:49;5.20;97.00
5461;DHT22;2753;49.196;8.286;2023-11-22T12:53:16;5.20;96.50
5461;DHT22;2753;49.196;8.286;2023-11-22T12:55:45;5.20;96.90
5461;DHT22;2753;49.196;8.286;2023-11-22T12:58:13;5.20;96.70
5461;DHT22;2753;49.196;8.286;2023-11-22T13:00:39;5.20;96.40
5461;DHT22;2753;49.196;8.286;2023-11-22T13:03:09;5.20;96.60
5461;DHT22;2753;49.196;8.286;2023-11-22T13:05:45;5.30;96.70
5461;DHT22;2753;49.196;8.286;2023-11-22T13:08:12;5.20;96.70
5461;DHT22;2753;49.196;8.286;2023-11-22T13:10:45;5.30;96.70
5461;DHT22;2753;49.196;8.286;2023-11-22T13:13:21;5.40;96.70
5461;DHT22;2753;49.196;8.286;2023-11-22T13:15:48;5.70;96.70
5461;DHT22;2753;49.196;8.286;2023-11-22T13:18:15;5.90;96.40
5461;DHT22;2753;49.196;8.286;2023-11-22T13:20:42;5.90;95.90
5461;DHT22;2753;49.196;8.286;2023-11-22T13:23:08;5.80;95.80
5461;DHT22;2753;49.196;8.286;2023-11-22T13:25:34;5.70;95.80
5461;DHT22;2753;49.196;8.286;2023-11-22T13:28:00;5.60;95.80
5461;DHT22;2753;49.196;8.286;2023-11-22T13:30:27;5.70;96.20
5461;DHT22;2753;49.196;8.286;2023-11-22T13:32:56;5.70;96.20
5461;DHT22;2753;49.196;8.286;2023-11-22T13:35:27;5.70;96.00
5461;DHT22;2753;49.196;8.286;2023-11-22T13:37:58;5.70;96.10
5461;DHT22;2753;49.196;8.286;2023-11-22T13:40:24;5.60;96.00
5461;DHT22;2753;49.196;8.286;2023-11-22T13:42:52;5.60;96.00
5461;DHT22;2753;49.196;8.286;2023-11-22T13:45:20;5.60;96.00
5461;DHT22;2753;49.196;8.286;2023-11-22T13:47:53;5.60;96.30
5461;DHT22;2753;49.196;8.286;2023-11-22T13:50:23;5.60;96.50
5461;DHT22;2753;49.196;8.286;2023-11-22T13:52:52;5.60;96.20
5461;DHT22;2753;49.196;8.286;2023-11-22T13:55:19;5.50;96.20
5461;DHT22;2753;49.196;8.286;2023-11-22T13:57:54;5.50;95.90
5461;DHT22;2753;49.196;8.286;2023-11-22T14:00:21;5.50;96.60
5461;DHT22;2753;49.196;8.286;2023-11-22T14:02:52;5.60;96.60
5461;DHT22;2753;49.196;8.286;2023-11-22T14:05:24;5.60;96.30
5461;DHT22;2753;49.196;8.286;2023-11-22T14:07:50;5.50;96.60
5461;DHT22;2753;49.196;8.286;2023-11-22T14:10:20;5.60;96.90
5461;DHT22;2753;49.196;8.286;2023-11-22T14:12:48;5.60;96.80
5461;DHT22;2753;49.196;8.286;2023-11-22T14:15:14;5.60;96.90
5461;DHT22;2753;49.196;8.286;2023-11-22T14:17:40;5.60;96.70
5461;DHT22;2753;49.196;8.286;2023-11-22T14:20:13;5.50;96.50
5461;DHT22;2753;49.196;8.286;2023-11-22T14:22:42;5.50;96.50
5461;DHT22;2753;49.196;8.286;2023-11-22T14:25:09;5.50;96.80
5461;DHT22;2753;49.196;8.286;2023-11-22T14:27:38;5.50;96.70
5461;DHT22;2753;49.196;8.286;2023-11-22T14:30:05;5.50;96.90
5461;DHT22;2753;49.196;8.286;2023-11-22T14:32:33;5.40;96.50
5461;DHT22;2753;49.196;8.286;2023-11-22T14:35:01;5.50;96.70
5461;DHT22;2753;49.196;8.286;2023-11-22T14:37:28;5.40;96.70
5461;DHT22;2753;49.196;8.286;2023-11-22T14:39:54;5.40;96.70
5461;DHT22;2753;49.196;8.286;2023-11-22T14:42:20;5.40;96.70
5461;DHT22;2753;49.196;8.286;2023-11-22T14:44:47;5.40;97.00
5461;DHT22;2753;49.196;8.286;2023-11-22T14:47:14;5.40;96.90
5461;DHT22;2753;49.196;8.286;2023-11-22T14:49:46;5.40;96.90
5461;DHT22;2753;49.196;8.286;2023-11-22T14:52:12;5.30;97.00
5461;DHT22;2753;49.196;8.286;2023-11-22T14:54:38;5.30;97.10
5461;DHT22;2753;49.196;8.286;2023-11-22T14:57:03;5.30;97.40
5461;DHT22;2753;49.196;8.286;2023-11-22T14:59:31;5.40;97.40
5461;DHT22;2753;49.196;8.286;2023-11-22T15:01:57;5.30;97.10
5461;DHT22;2753;49.196;8.286;2023-11-22T15:04:24;5.30;97.00
5461;DHT22;2753;49.196;8.286;2023-11-22T15:06:51;5.20;97.00
5461;DHT22;2753;49.196;8.286;2023-11-22T15:09:17;5.20;97.30
5461;DHT22;2753;49.196;8.286;2023-11-22T15:11:43;5.30;97.40
5461;DHT22;2753;49.196;8.286;2023-11-22T15:14:09;5.30;97.40
5461;DHT22;2753;49.196;8.286;2023-11-22T15:16:35;5.30;97.30
5461;DHT22;2753;49.196;8.286;2023-11-22T15:19:03;5.20;97.40
5461;DHT22;2753;49.196;8.286;2023-11-22T15:21:31;5.20;97.10
5461;DHT22;2753;49.196;8.286;2023-11-22T15:23:57;5.20;97.10
5461;DHT22;2753;49.196;8.286;2023-11-22T15:26:22;5.20;97.00
5461;DHT22;2753;49.196;8.286;2023-11-22T15:28:48;5.20;96.90
5461;DHT22;2753;49.196;8.286;2023-11-22T15:31:16;5.10;96.90
5461;DHT22;2753;49.196;8.286;2023-11-22T15:33:41;5.10;97.10
5461;DHT22;2753;49.196;8.286;2023-11-22T15:36:08;5.10;97.30
5461;DHT22;2753;49.196;8.286;2023-11-22T15:38:34;5.10;97.30
5461;DHT22;2753;49.196;8.286;2023-11-22T15:41:01;5.10;97.40
5461;DHT22;2753;49.196;8.286;2023-11-22T15:43:28;5.00;97.40
5461;DHT22;2753;49.196;8.286;2023-11-22T15:45:55;5.00;97.70
5461;DHT22;2753;49.196;8.286;2023-11-22T15:48:21;5.00;97.90
5461;DHT22;2753;49.196;8.286;2023-11-22T15:50:47;5.00;97.90
5461;DHT22;2753;49.196;8.286;2023-11-22T15:53:13;5.00;97.70
5461;DHT22;2753;49.196;8.286;2023-11-22T15:55:39;4.90;97.60
5461;DHT22;2753;49.196;8.286;2023-11-22T15:58:05;4.90;97.60
5461;DHT22;2753;49.196;8.286;2023-11-22T16:00:31;4.90;97.80
5461;DHT22;2753;49.196;8.286;2023-11-22T16:02:57;4.90;97.80
5461;DHT22;2753;49.196;8.286;2023-11-22T16:05:23;4.90;97.90
5461;DHT22;2753;49.196;8.286;2023-11-22T16:07:49;4.90;97.80
5461;DHT22;2753;49.196;8.286;2023-11-22T16:10:15;4.90;97.90
5461;DHT22;2753;49.196;8.286;2023-11-22T16:12:42;4.90;97.70
5461;DHT22;2753;49.196;8.286;2023-11-22T16:15:09;4.80;97.80
5461;DHT22;2753;49.196;8.286;2023-11-22T16:17:38;4.80;97.80
5461;DHT22;2753;49.196;8.286;2023-11-22T16:20:04;4.80;97.90
5461;DHT22;2753;49.196;8.286;2023-11-22T16:22:37;4.80;98.10
5461;DHT22;2753;49.196;8.286;2023-11-22T16:25:10;4.80;98.10
5461;DHT22;2753;49.196;8.286;2023-11-22T16:27:39;4.80;97.90
5461;DHT22;2753;49.196;8.286;2023-11-22T16:30:07;4.80;97.90
5461;DHT22;2753;49.196;8.286;2023-11-22T16:32:34;4.80;97.90
5461;DHT22;2753;49.196;8.286;2023-11-22T16:35:02;4.70;97.80
5461;DHT22;2753;49.196;8.286;2023-11-22T16:37:28;4.60;97.90
5461;DHT22;2753;49.196;8.286;2023-11-22T16:39:53;4.60;98.20
5461;DHT22;2753;49.196;8.286;2023-11-22T16:42:24;4.60;98.20
5461;DHT22;2753;49.196;8.286;2023-11-22T16:44:49;4.60;98.20
5461;DHT22;2753;49.196;8.286;2023-11-22T16:47:15;4.60;98.20
5461;DHT22;2753;49.196;8.286;2023-11-22T16:49:46;4.60;98.20
5461;DHT22;2753;49.196;8.286;2023-11-22T16:52:12;4.40;98.00